Terminal Aerodrome Forecast
Issued by NWS Chicago, IL

Home | Current Version | Previous Version | Graphics & Text | Print | Product List | Glossary On
Versions: 1 2 3 4 5 6 7 8 9 10 11 12 13 14 15 16 17 18 19 20 21 22 23 24 25 26 27 28 29 30
000
FTUS43 KLOT 160714 AAA
TAFRFD
TAF AMD
KRFD 160714Z 1607/1706 VRB03KT 6SM BR VCSH SCT060 OVC120
      TEMPO 1608/1610 -FZRAPL BKN060
     FM161000 12004KT 6SM BR VCSH SCT015 OVC035
      TEMPO 1610/1611 5SM -FZRAPL OVC015
     FM161100 10005KT 3SM -FZRA BR OVC008
     FM161600 10007KT 3SM -RA BR OVC005
     FM161900 09008KT 2SM -SHRA BR OVC004
     FM162200 09010KT 1SM -RA BR OVC003
     FM170100 09012KT 3/4SM RA BR OVC002=

USA.gov is the U.S. government's official web portal to all federal, state and local government web resources and services.